Oaktown, Indiana
Current Conditions -  °F | °C
As of 7:53 AM on Sunday 21 Dec 2014 (Local Time) from KLWV Reporting Station
Haze Haze  
Wind Chill: -7°   Ceiling: Unl
Heat Index: -3°   Visibility: 2mi
Dew Point: -4°   Wind: 6mph
Humidity: 92%   Direction: 70°ENE
Pressure: 30.29"   Gusts: NA
Location:  38.87°N, 87.44°W
Report Text: KLWV 211353Z AUTO 07005KT 2SM BR CLR M03/M04 A3029 RMK AO2 SLP262 T10331044
Loading
Personal Weather Stations






























Interactive Weather Map New forecast layout! Learn more

10-Day Weather Forecast

Advertisements
Track Severe Weather on mobile